Time;durP1;ratioP1;P1;durP2;ratioP2;P2;SDS_P1;SDS_P2;PMS_P1;PMS_P2;Temp;Humidity;BMP_temperature;BMP_pressure;BME280_temperature;BME280_humidity;BME280_pressure;Samples;Min_cycle;Max_cycle;Signal;HPM_P1;HPM_P2
2022/07/21 03:00:17;;;;;;;1.60;1.50;;;32.30;42.00;;;;;;5979617;23;45931;-76
2022/07/21 03:02:43;;;;;;;1.38;1.30;;;32.30;42.10;;;;;;4953335;28;46133;-72
2022/07/21 03:05:10;;;;;;;1.48;1.38;;;32.30;42.10;;;;;;4943153;28;45237;-72
2022/07/21 03:07:36;;;;;;;1.17;1.17;;;32.30;42.10;;;;;;4952911;28;46504;-72
2022/07/21 03:10:03;;;;;;;1.42;1.33;;;32.30;42.10;;;;;;4931721;28;44739;-72
2022/07/21 03:12:29;;;;;;;1.58;1.48;;;32.30;42.10;;;;;;4980374;28;45796;-71
2022/07/21 03:14:55;;;;;;;1.60;1.50;;;32.30;42.10;;;;;;4925860;28;44994;-71
2022/07/21 03:17:22;;;;;;;1.77;1.63;;;32.30;42.10;;;;;;4977685;28;44754;-71
2022/07/21 03:19:48;;;;;;;1.33;1.23;;;32.30;42.10;;;;;;4958080;28;45227;-71
2022/07/21 03:22:14;;;;;;;1.98;1.50;;;32.30;42.10;;;;;;4959480;28;46126;-72
2022/07/21 03:24:41;;;;;;;1.50;1.40;;;32.30;42.10;;;;;;4963416;28;45043;-71
2022/07/21 03:27:07;;;;;;;1.50;1.40;;;32.30;42.10;;;;;;4948219;28;45172;-71
2022/07/21 03:29:47;;;;;;;1.38;1.27;;;32.30;42.60;;;;;;4982102;28;46137;-72
2022/07/21 03:32:13;;;;;;;1.58;1.48;;;32.30;42.10;;;;;;4983716;28;45092;-73
2022/07/21 03:34:39;;;;;;;1.60;1.50;;;32.30;42.10;;;;;;4963036;28;45270;-71
2022/07/21 03:37:05;;;;;;;1.48;1.38;;;32.30;42.10;;;;;;4956285;28;45003;-75
2022/07/21 03:39:32;;;;;;;1.40;1.30;;;32.30;42.10;;;;;;4981937;28;45251;-71
2022/07/21 03:41:58;;;;;;;1.35;1.25;;;32.30;42.10;;;;;;4978507;28;46904;-74
2022/07/21 03:44:24;;;;;;;1.63;1.52;;;32.30;42.10;;;;;;4978522;28;45006;-72
2022/07/21 03:46:50;;;;;;;1.55;1.45;;;32.30;42.10;;;;;;4948167;28;45107;-71
2022/07/21 03:49:17;;;;;;;1.50;1.40;;;32.30;42.10;;;;;;4966341;28;45481;-73
2022/07/21 03:51:44;;;;;;;1.17;1.17;;;32.30;42.10;;;;;;4947047;28;45437;-72
2022/07/21 03:54:10;;;;;;;1.70;1.60;;;32.30;42.10;;;;;;4959912;28;45311;-72
2022/07/21 03:56:36;;;;;;;1.55;1.45;;;32.30;42.10;;;;;;4978563;28;46155;-69
2022/07/21 03:59:02;;;;;;;1.30;1.20;;;32.20;42.00;;;;;;4963063;28;45188;-72
2022/07/21 04:01:29;;;;;;;1.58;1.48;;;32.20;42.10;;;;;;4960148;28;46277;-72
2022/07/21 04:03:55;;;;;;;1.60;1.50;;;32.20;42.10;;;;;;4980854;28;44641;-71
2022/07/21 04:06:21;;;;;;;1.40;1.30;;;32.30;42.20;;;;;;4969108;28;45045;-70
2022/07/21 04:08:48;;;;;;;1.70;1.60;;;32.20;42.10;;;;;;4980172;28;45184;-72
2022/07/21 04:11:14;;;;;;;1.48;1.38;;;32.20;42.10;;;;;;4983931;28;46013;-71
2022/07/21 04:13:40;;;;;;;2.42;1.70;;;32.20;42.10;;;;;;4962426;28;45242;-70
2022/07/21 04:16:07;;;;;;;1.80;1.70;;;32.20;42.10;;;;;;4950250;28;45030;-74
2022/07/21 04:18:33;;;;;;;1.40;1.30;;;32.20;42.10;;;;;;4945651;28;45035;-72
2022/07/21 04:20:59;;;;;;;2.13;1.60;;;32.20;42.10;;;;;;4981193;28;45122;-69
2022/07/21 04:23:25;;;;;;;1.42;1.33;;;32.20;42.10;;;;;;4986737;28;44686;-71
2022/07/21 04:25:52;;;;;;;1.35;1.33;;;32.20;42.10;;;;;;4979191;28;45049;-70
2022/07/21 04:28:18;;;;;;;1.70;1.60;;;32.20;42.10;;;;;;4951142;28;45137;-77
2022/07/21 04:30:44;;;;;;;1.70;1.60;;;32.20;42.10;;;;;;4947118;28;45906;-72
2022/07/21 04:33:11;;;;;;;1.52;1.42;;;32.20;42.10;;;;;;4963875;28;44996;-70
2022/07/21 04:35:37;;;;;;;1.70;1.60;;;32.20;42.10;;;;;;4938000;28;44986;-70
2022/07/21 04:38:03;;;;;;;1.38;1.27;;;32.20;42.10;;;;;;4987184;28;44957;-72
2022/07/21 04:40:30;;;;;;;1.38;1.27;;;32.20;42.10;;;;;;4954298;28;45293;-73
2022/07/21 04:42:56;;;;;;;1.73;1.63;;;32.20;42.20;;;;;;4963776;28;45017;-74
2022/07/21 04:45:22;;;;;;;1.50;1.40;;;32.20;42.20;;;;;;4963498;28;45037;-76
2022/07/21 04:47:53;;;;;;;1.80;1.70;;;32.20;42.20;;;;;;4983295;28;45287;-73
2022/07/21 04:50:20;;;;;;;1.50;1.40;;;32.20;42.20;;;;;;4944108;28;47206;-73
2022/07/21 04:52:47;;;;;;;1.60;1.50;;;32.10;42.20;;;;;;4978656;28;44953;-76
2022/07/21 04:55:13;;;;;;;1.75;1.60;;;32.20;42.20;;;;;;4980995;28;44946;-76
2022/07/21 04:57:40;;;;;;;1.63;1.52;;;32.20;42.20;;;;;;4954606;28;45173;-73
2022/07/21 05:00:08;;;;;;;1.60;1.50;;;32.20;42.20;;;;;;4953304;28;47004;-72
2022/07/21 05:02:34;;;;;;;1.58;1.48;;;32.20;42.20;;;;;;4969575;28;44909;-72
2022/07/21 05:05:01;;;;;;;1.60;1.50;;;32.10;42.10;;;;;;4965260;28;44717;-71
2022/07/21 05:07:27;;;;;;;1.50;1.40;;;32.20;42.20;;;;;;4968821;28;45217;-73
2022/07/21 05:09:54;;;;;;;1.17;1.17;;;32.10;42.10;;;;;;4948204;28;45508;-70
2022/07/21 05:12:20;;;;;;;1.48;1.38;;;32.10;42.20;;;;;;4969338;28;46543;-73
2022/07/21 05:14:46;;;;;;;1.60;1.50;;;32.10;42.10;;;;;;4975638;28;45055;-75
2022/07/21 05:17:12;;;;;;;1.55;1.45;;;32.20;42.20;;;;;;4953697;28;44879;-70
2022/07/21 05:19:39;;;;;;;1.50;1.40;;;32.10;42.20;;;;;;4934539;28;46109;-74
2022/07/21 05:22:05;;;;;;;1.70;1.60;;;32.10;42.20;;;;;;4952247;28;45124;-71
2022/07/21 05:24:31;;;;;;;1.50;1.40;;;32.10;42.20;;;;;;4966633;28;44874;-72
2022/07/21 05:26:57;;;;;;;1.67;1.58;;;32.10;42.20;;;;;;4968128;28;45188;-72
2022/07/21 05:29:24;;;;;;;1.50;1.40;;;32.10;42.20;;;;;;4965907;28;46571;-74
2022/07/21 05:31:50;;;;;;;1.58;1.48;;;32.10;42.20;;;;;;4978950;28;45283;-70
2022/07/21 05:34:16;;;;;;;1.55;1.45;;;32.10;42.80;;;;;;4985257;28;44691;-72
2022/07/21 05:36:42;;;;;;;1.52;1.42;;;32.10;42.80;;;;;;4945976;28;45157;-72
2022/07/21 05:39:09;;;;;;;1.90;1.80;;;32.10;42.20;;;;;;4967640;28;45201;-72
2022/07/21 05:41:35;;;;;;;1.30;1.20;;;32.10;42.20;;;;;;4987139;28;45139;-72
2022/07/21 05:44:01;;;;;;;1.67;1.58;;;32.10;42.20;;;;;;4988671;28;45057;-72
2022/07/21 05:46:28;;;;;;;1.45;1.35;;;32.10;42.20;;;;;;4941342;28;45058;-76
2022/07/21 05:48:54;;;;;;;1.50;1.40;;;32.10;42.40;;;;;;4979839;28;45053;-72
2022/07/21 05:51:21;;;;;;;1.63;1.52;;;32.10;42.20;;;;;;4976574;28;44833;-72
2022/07/21 05:53:47;;;;;;;1.83;1.30;;;32.10;42.20;;;;;;4972768;28;44927;-69
2022/07/21 05:56:13;;;;;;;1.48;1.38;;;32.10;42.20;;;;;;4966909;28;45312;-71
2022/07/21 05:58:38;;;;;;;1.90;1.30;;;32.10;42.30;;;;;;4947353;28;45059;-69
2022/07/21 06:01:07;;;;;;;2.85;2.47;;;32.10;42.30;;;;;;4953524;28;44873;-57
2022/07/21 06:03:44;;;;;;;4.68;3.78;;;32.10;42.50;;;;;;4987805;28;44921;-55
2022/07/21 06:06:12;;;;;;;4.82;4.32;;;31.90;43.10;;;;;;4982803;28;44843;-58
2022/07/21 06:08:40;;;;;;;6.18;5.43;;;31.70;43.80;;;;;;4964319;28;46008;-58
2022/07/21 06:11:10;;;;;;;8.07;5.85;;;31.50;44.30;;;;;;4950919;28;45177;-58
2022/07/21 06:13:36;;;;;;;7.60;6.05;;;31.30;45.00;;;;;;4990041;28;45091;-59
2022/07/21 06:16:03;;;;;;;8.13;6.13;;;31.10;45.20;;;;;;4984127;28;44746;-57
2022/07/21 06:18:29;;;;;;;7.72;6.57;;;31.00;45.50;;;;;;4984389;28;45873;-59
2022/07/21 06:20:56;;;;;;;7.30;6.55;;;30.80;45.80;;;;;;4966969;28;45172;-58
2022/07/21 06:23:22;;;;;;;8.82;6.95;;;30.80;46.20;;;;;;4960962;28;45058;-56
2022/07/21 06:25:48;;;;;;;8.90;7.00;;;30.70;46.20;;;;;;4986754;28;44709;-56
2022/07/21 06:28:14;;;;;;;9.60;7.25;;;30.50;46.50;;;;;;4979898;28;46394;-57
2022/07/21 06:30:41;;;;;;;7.82;6.93;;;30.40;46.80;;;;;;4983815;28;44967;-60
2022/07/21 06:33:07;;;;;;;12.05;7.22;;;30.30;46.90;;;;;;4973545;28;44844;-61
2022/07/21 06:35:33;;;;;;;8.43;7.00;;;30.20;47.20;;;;;;4981516;28;45169;-58
2022/07/21 06:38:00;;;;;;;11.90;7.63;;;30.10;47.50;;;;;;4981796;28;46309;-58
2022/07/21 06:40:26;;;;;;;8.50;7.60;;;30.00;47.80;;;;;;4977786;28;45020;-59
2022/07/21 06:42:52;;;;;;;9.05;7.68;;;29.90;48.00;;;;;;4982862;28;44703;-55
2022/07/21 06:45:18;;;;;;;8.93;8.02;;;29.80;48.10;;;;;;4986478;28;45087;-55
2022/07/21 06:47:45;;;;;;;9.98;7.80;;;29.70;48.30;;;;;;4979210;28;45920;-56
2022/07/21 06:50:11;;;;;;;10.63;8.15;;;29.60;48.40;;;;;;4978060;28;44968;-57
2022/07/21 06:52:37;;;;;;;12.15;8.40;;;29.50;48.40;;;;;;4987838;28;46091;-57
2022/07/21 06:55:04;;;;;;;12.57;10.00;;;29.40;48.70;;;;;;4984551;28;44884;-56
2022/07/21 06:57:31;;;;;;;10.05;7.55;;;29.30;49.00;;;;;;4963655;28;46136;-58
2022/07/21 06:59:57;;;;;;;10.65;9.13;;;29.20;49.20;;;;;;4977924;28;45184;-58
2022/07/21 07:02:23;;;;;;;12.25;8.40;;;29.20;49.50;;;;;;4988040;28;44761;-57
2022/07/21 07:04:49;;;;;;;10.35;8.70;;;29.00;49.40;;;;;;4981010;28;45085;-54
2022/07/21 07:07:16;;;;;;;9.70;8.73;;;29.00;49.60;;;;;;4972134;28;46674;-56
2022/07/21 07:09:42;;;;;;;11.18;8.90;;;28.90;49.60;;;;;;4980284;28;45006;-59
2022/07/21 07:12:08;;;;;;;9.88;8.82;;;28.80;49.70;;;;;;4981491;28;44623;-57
2022/07/21 07:14:35;;;;;;;10.40;8.13;;;28.70;49.80;;;;;;4964807;28;44963;-56
2022/07/21 07:17:02;;;;;;;11.57;7.90;;;28.60;50.00;;;;;;4972189;28;46132;-56
2022/07/21 07:19:28;;;;;;;9.60;7.28;;;28.60;50.30;;;;;;4982201;28;44690;-57
2022/07/21 07:21:55;;;;;;;7.65;6.90;;;28.40;50.20;;;;;;4987906;28;45202;-59
2022/07/21 07:24:21;;;;;;;9.07;8.18;;;28.30;50.40;;;;;;4968455;28;45123;-56
2022/07/21 07:26:48;;;;;;;8.73;7.82;;;28.20;50.30;;;;;;4967809;28;45247;-58
2022/07/21 07:29:14;;;;;;;9.23;7.13;;;28.10;50.80;;;;;;4984948;28;44939;-57
2022/07/21 07:31:40;;;;;;;10.13;7.30;;;28.00;51.00;;;;;;4980455;28;45018;-55
2022/07/21 07:34:07;;;;;;;8.52;7.10;;;27.90;51.20;;;;;;4982849;28;45541;-55
2022/07/21 07:36:34;;;;;;;11.18;8.73;;;27.80;51.40;;;;;;4952614;28;45169;-58
2022/07/21 07:39:01;;;;;;;10.77;8.38;;;27.70;51.30;;;;;;4979723;28;45174;-58
2022/07/21 07:41:28;;;;;;;10.18;7.47;;;27.70;51.40;;;;;;4988048;28;44727;-56
2022/07/21 07:43:55;;;;;;;10.07;8.65;;;27.70;51.60;;;;;;4961511;28;45269;-56
2022/07/21 07:46:21;;;;;;;9.95;8.15;;;27.60;51.30;;;;;;4967640;28;46030;-56
2022/07/21 07:48:47;;;;;;;10.98;9.23;;;27.60;51.50;;;;;;4985524;28;45265;-56
2022/07/21 07:51:14;;;;;;;11.80;8.93;;;27.60;51.90;;;;;;4986563;28;44995;-56
2022/07/21 07:53:40;;;;;;;11.73;9.13;;;27.60;51.90;;;;;;4987431;28;44998;-57
2022/07/21 07:56:07;;;;;;;10.32;8.57;;;27.60;51.90;;;;;;4994793;28;46298;-57
2022/07/21 07:58:33;;;;;;;11.27;8.65;;;27.60;51.80;;;;;;4986768;28;45138;-57
2022/07/21 08:01:00;;;;;;;14.50;9.57;;;27.50;52.10;;;;;;4992220;28;44981;-57
2022/07/21 08:03:26;;;;;;;11.77;7.90;;;27.50;52.30;;;;;;4987606;28;46210;-57
2022/07/21 08:05:53;;;;;;;12.07;9.15;;;27.50;52.50;;;;;;4991619;28;46281;-58
2022/07/21 08:08:20;;;;;;;9.35;8.30;;;27.40;52.10;;;;;;4987461;28;44980;-57
2022/07/21 08:10:46;;;;;;;10.35;9.25;;;27.40;52.00;;;;;;4988517;28;44991;-57
2022/07/21 08:13:13;;;;;;;12.18;8.43;;;27.40;52.20;;;;;;4984136;28;44711;-56
2022/07/21 08:15:39;;;;;;;10.82;9.30;;;27.40;52.10;;;;;;4984575;28;46077;-57
2022/07/21 08:18:05;;;;;;;9.45;7.82;;;27.40;52.10;;;;;;4991070;28;44719;-55
2022/07/21 08:20:30;;;;;;;8.40;7.00;;;27.30;51.90;;;;;;4973742;28;45216;-57
2022/07/21 08:22:56;;;;;;;9.48;7.03;;;27.30;51.70;;;;;;4990421;28;44681;-72
2022/07/21 08:25:22;;;;;;;10.65;8.10;;;27.20;51.60;;;;;;4989586;28;45254;-71
2022/07/21 08:27:47;;;;;;;10.00;7.65;;;27.20;51.40;;;;;;4985212;28;44807;-72
2022/07/21 08:30:13;;;;;;;11.45;7.75;;;27.20;51.30;;;;;;4967953;28;45009;-71
2022/07/21 08:32:40;;;;;;;8.63;7.10;;;27.10;51.10;;;;;;4974484;28;45186;-70
2022/07/21 08:35:08;;;;;;;11.45;7.45;;;27.10;50.90;;;;;;4970153;28;46406;-69
2022/07/21 08:37:35;;;;;;;9.88;7.45;;;27.10;50.90;;;;;;4960587;28;44934;-72
2022/07/21 08:40:02;;;;;;;7.88;6.90;;;27.10;50.80;;;;;;4965594;28;45194;-71
2022/07/21 08:42:27;;;;;;;8.45;6.60;;;27.10;50.80;;;;;;4990053;28;45151;-71
2022/07/21 08:44:53;;;;;;;7.45;6.68;;;27.10;50.80;;;;;;4969195;28;46172;-71
2022/07/21 08:47:18;;;;;;;11.38;7.65;;;27.10;50.80;;;;;;4969480;28;44861;-71
2022/07/21 08:49:45;;;;;;;11.45;6.80;;;27.10;50.90;;;;;;4950014;28;45223;-71
2022/07/21 08:52:11;;;;;;;7.70;6.90;;;27.00;51.00;;;;;;4954991;28;45368;-71
2022/07/21 08:54:36;;;;;;;9.57;7.43;;;27.00;51.10;;;;;;4971607;28;46638;-70
2022/07/21 08:57:02;;;;;;;12.20;7.72;;;27.00;51.00;;;;;;4966391;28;45251;-71
2022/07/21 08:59:27;;;;;;;10.13;6.45;;;27.10;51.10;;;;;;4974129;28;44966;-71
2022/07/21 09:01:53;;;;;;;7.72;6.57;;;27.10;50.70;;;;;;4949350;28;45447;-70
2022/07/21 09:04:32;;;;;;;8.35;6.95;;;27.20;50.70;;;;;;4987177;28;46166;-71
2022/07/21 09:07:03;;;;;;;9.40;6.75;;;27.30;50.70;;;;;;4962831;28;44942;-71
2022/07/21 09:09:29;;;;;;;7.45;6.30;;;27.40;50.40;;;;;;4971118;28;45054;-70
2022/07/21 09:11:56;;;;;;;7.53;5.85;;;27.50;50.00;;;;;;4968583;28;45213;-70
2022/07/21 09:14:26;;;;;;;7.35;5.70;;;27.60;49.80;;;;;;4987635;28;45091;-70
2022/07/21 09:16:57;;;;;;;7.75;6.30;;;27.70;49.60;;;;;;4948908;28;45296;-70
2022/07/21 09:19:35;;;;;;;10.48;6.60;;;27.80;49.50;;;;;;4987966;28;45105;-70
2022/07/21 09:22:02;;;;;;;7.70;6.75;;;27.90;49.30;;;;;;4981745;28;45746;-70
2022/07/21 09:24:32;;;;;;;7.28;5.70;;;28.00;49.10;;;;;;4972550;28;45937;-71
2022/07/21 09:27:12;;;;;;;7.10;6.40;;;28.10;48.90;;;;;;4971970;28;45007;-70
2022/07/21 09:29:48;;;;;;;6.85;6.03;;;28.20;48.80;;;;;;4950692;28;44953;-70
2022/07/21 09:32:19;;;;;;;8.45;6.18;;;28.20;48.70;;;;;;4963946;28;45182;-70
2022/07/21 09:34:50;;;;;;;7.30;6.38;;;28.30;48.60;;;;;;4962348;28;45344;-72
2022/07/21 09:37:15;;;;;;;7.10;6.40;;;28.30;48.40;;;;;;4943319;28;44971;-74
2022/07/21 09:39:50;;;;;;;8.73;5.93;;;28.40;48.30;;;;;;4963164;28;45045;-73
2022/07/21 09:42:19;;;;;;;8.05;5.75;;;28.50;48.20;;;;;;4976641;28;45254;-75
2022/07/21 09:44:47;;;;;;;7.82;5.75;;;28.50;48.10;;;;;;4934092;28;45068;-73
2022/07/21 09:47:15;;;;;;;10.45;6.45;;;28.60;48.00;;;;;;4951693;28;45129;-71
2022/07/21 09:49:40;;;;;;;6.60;5.97;;;28.70;48.00;;;;;;4986787;28;45208;-73
2022/07/21 09:52:39;;;;;;;7.35;5.47;;;28.70;47.80;;;;;;4949437;28;45078;-71
2022/07/21 09:55:13;;;;;;;7.88;5.97;;;28.80;47.60;;;;;;4958910;28;46009;-72
2022/07/21 09:57:39;;;;;;;6.70;6.10;;;28.90;47.60;;;;;;4945952;28;44931;-71
2022/07/21 10:00:08;;;;;;;6.50;5.88;;;29.00;48.20;;;;;;4952239;28;45006;-71
2022/07/21 10:02:34;;;;;;;6.10;5.50;;;29.00;47.40;;;;;;4952375;28;44995;-72
2022/07/21 10:05:04;;;;;;;7.30;6.13;;;29.10;47.40;;;;;;4948552;28;46112;-72
2022/07/21 10:07:30;;;;;;;7.20;6.28;;;29.20;47.30;;;;;;4947306;28;44963;-72
2022/07/21 10:09:56;;;;;;;9.52;5.90;;;29.20;47.20;;;;;;4988657;28;44949;-71
2022/07/21 10:12:22;;;;;;;6.45;5.85;;;29.30;47.20;;;;;;4965616;28;45227;-71
2022/07/21 10:14:47;;;;;;;6.28;5.68;;;29.30;47.10;;;;;;4970593;28;46352;-71
2022/07/21 10:17:14;;;;;;;7.00;6.00;;;29.40;47.00;;;;;;4952309;28;45140;-71
2022/07/21 10:19:58;;;;;;;7.10;6.40;;;29.40;46.80;;;;;;4957402;28;45313;-70
2022/07/21 10:23:01;;;;;;;7.45;5.75;;;29.40;46.60;;;;;;4974063;28;44888;-71
2022/07/21 10:25:26;;;;;;;7.10;6.00;;;29.50;46.60;;;;;;4927122;28;46237;-71
2022/07/21 10:28:10;;;;;;;6.88;6.20;;;29.60;46.60;;;;;;4967465;28;44815;-71
2022/07/21 10:30:47;;;;;;;6.75;5.90;;;29.60;46.30;;;;;;4984924;28;44750;-71
2022/07/21 10:33:14;;;;;;;6.18;5.50;;;29.60;46.20;;;;;;4966531;28;45037;-70
2022/07/21 10:35:44;;;;;;;6.45;5.53;;;29.70;46.20;;;;;;4962658;28;45431;-70
2022/07/21 10:38:27;;;;;;;6.18;5.60;;;29.70;46.10;;;;;;4988682;28;45045;-70
2022/07/21 10:40:52;;;;;;;6.60;6.00;;;29.80;46.00;;;;;;4983991;28;45181;-70
2022/07/21 10:43:24;;;;;;;6.22;5.57;;;29.80;45.90;;;;;;4968931;28;47415;-71
2022/07/21 10:45:50;;;;;;;6.40;5.80;;;29.80;45.80;;;;;;4966871;28;46137;-71
2022/07/21 10:48:37;;;;;;;6.43;5.82;;;29.90;45.80;;;;;;4963134;28;45384;-70
2022/07/21 10:51:07;;;;;;;7.30;5.88;;;29.90;45.60;;;;;;4971995;28;45519;-72
2022/07/21 10:53:33;;;;;;;6.68;5.97;;;30.00;45.60;;;;;;4952089;28;45250;-72
2022/07/21 10:55:58;;;;;;;6.32;5.72;;;30.00;45.60;;;;;;4968455;28;46174;-72
2022/07/21 10:58:42;;;;;;;7.80;5.97;;;30.10;45.50;;;;;;4966265;28;45181;-73
2022/07/21 11:01:14;;;;;;;6.30;5.70;;;30.10;45.20;;;;;;4982365;28;44949;-73
2022/07/21 11:03:40;;;;;;;6.03;5.45;;;30.20;45.40;;;;;;4980968;28;45030;-72
2022/07/21 11:06:09;;;;;;;7.63;4.88;;;30.20;45.40;;;;;;4962397;28;45168;-72
2022/07/21 11:08:38;;;;;;;6.60;5.70;;;30.20;45.30;;;;;;4963315;28;44894;-72
2022/07/21 11:11:20;;;;;;;6.18;5.57;;;30.20;45.20;;;;;;4961366;28;44938;-72
2022/07/21 11:14:09;;;;;;;7.05;6.35;;;30.30;45.20;;;;;;4963915;28;44878;-72
2022/07/21 11:19:33;;;;;;;6.32;5.63;;;30.30;45.00;;;;;;4979990;28;45283;-71
2022/07/21 11:22:01;;;;;;;6.53;5.75;;;30.40;45.00;;;;;;4981243;28;46042;-73
2022/07/21 11:24:27;;;;;;;5.88;5.32;;;30.40;45.00;;;;;;4961883;28;45482;-74
2022/07/21 11:27:01;;;;;;;6.50;5.45;;;30.50;45.00;;;;;;4964460;28;45088;-73
2022/07/21 11:29:26;;;;;;;6.93;5.68;;;30.50;44.80;;;;;;4981252;28;45176;-73
2022/07/21 11:31:52;;;;;;;6.03;5.32;;;30.50;44.90;;;;;;4966946;28;44975;-72
2022/07/21 11:34:18;;;;;;;6.03;5.43;;;30.60;44.90;;;;;;4930478;28;45096;-74
2022/07/21 11:36:44;;;;;;;6.18;5.57;;;30.60;44.80;;;;;;4965432;28;45100;-71
2022/07/21 11:39:14;;;;;;;6.15;5.55;;;30.70;44.80;;;;;;4985615;28;44912;-72
2022/07/21 11:41:40;;;;;;;5.97;5.43;;;30.70;44.60;;;;;;4950175;28;45005;-72
2022/07/21 11:44:07;;;;;;;5.78;5.20;;;30.70;44.60;;;;;;4935941;28;44718;-71
2022/07/21 11:46:51;;;;;;;5.72;5.18;;;30.70;44.70;;;;;;4967155;28;45924;-69
2022/07/21 11:49:16;;;;;;;5.20;4.70;;;30.70;44.50;;;;;;4964614;28;45078;-69
2022/07/21 11:51:54;;;;;;;7.45;5.45;;;30.80;44.70;;;;;;4948732;28;44770;-69
2022/07/21 11:54:20;;;;;;;5.28;4.78;;;30.80;44.60;;;;;;4962653;28;45465;-69
2022/07/21 11:56:48;;;;;;;6.10;5.50;;;30.90;44.70;;;;;;4964160;28;46029;-69
2022/07/21 11:59:14;;;;;;;5.47;4.97;;;30.90;44.60;;;;;;4967158;28;45109;-72
2022/07/21 12:01:54;;;;;;;6.05;5.47;;;30.90;44.50;;;;;;4945886;28;45215;-70
2022/07/21 12:04:42;;;;;;;5.50;4.68;;;30.90;44.40;;;;;;4979835;28;46380;-67
2022/07/21 12:07:34;;;;;;;5.45;4.93;;;31.00;44.50;;;;;;4979222;28;45965;-67
2022/07/21 12:10:22;;;;;;;5.22;4.75;;;31.00;44.50;;;;;;4954535;28;45033;-73
2022/07/21 12:12:49;;;;;;;5.82;5.22;;;31.00;44.50;;;;;;4938695;28;44993;-68
2022/07/21 12:15:33;;;;;;;6.05;5.28;;;31.00;44.50;;;;;;4963518;28;45277;-71
2022/07/21 12:18:21;;;;;;;5.75;4.82;;;31.10;44.50;;;;;;4958151;28;46950;-72
2022/07/21 12:20:47;;;;;;;7.32;5.78;;;31.10;44.60;;;;;;4982021;28;44671;-69
2022/07/21 12:23:24;;;;;;;5.95;5.43;;;31.10;44.50;;;;;;4978909;28;45977;-69
2022/07/21 12:25:50;;;;;;;5.20;4.70;;;31.10;44.50;;;;;;4964855;28;44934;-71
2022/07/21 12:28:16;;;;;;;6.05;5.45;;;31.10;44.50;;;;;;4958358;28;46892;-68
2022/07/21 12:30:46;;;;;;;5.43;4.93;;;31.20;44.60;;;;;;4965782;28;45179;-68
2022/07/21 12:33:16;;;;;;;5.53;5.03;;;31.20;44.60;;;;;;4960112;28;45866;-68
2022/07/21 12:35:44;;;;;;;5.60;5.10;;;31.30;44.60;;;;;;4954518;28;44954;-71
2022/07/21 12:38:11;;;;;;;5.40;4.90;;;31.30;44.60;;;;;;4962461;28;46243;-70
2022/07/21 12:40:38;;;;;;;6.57;5.30;;;31.30;44.60;;;;;;4965547;28;45289;-70
2022/07/21 12:43:08;;;;;;;5.47;5.00;;;31.40;44.70;;;;;;4965638;28;45021;-70
2022/07/21 12:45:46;;;;;;;5.53;5.03;;;31.40;44.70;;;;;;4974752;28;44928;-71
2022/07/21 12:48:13;;;;;;;5.25;4.72;;;31.40;44.70;;;;;;4967854;28;45187;-71
2022/07/21 12:50:39;;;;;;;5.55;5.05;;;31.40;44.70;;;;;;4967392;28;45075;-73
2022/07/21 12:53:11;;;;;;;5.50;5.00;;;31.40;45.30;;;;;;4949123;28;44809;-72
2022/07/21 12:55:37;;;;;;;5.80;5.07;;;31.50;44.70;;;;;;4985248;28;45001;-71
2022/07/21 12:58:03;;;;;;;4.95;4.47;;;31.50;44.80;;;;;;4963439;28;46172;-70
2022/07/21 13:00:28;;;;;;;5.28;4.78;;;31.50;44.70;;;;;;4957702;28;45105;-70
2022/07/21 13:02:54;;;;;;;5.57;5.00;;;31.60;44.70;;;;;;4954953;28;45441;-71
2022/07/21 13:05:21;;;;;;;5.30;4.60;;;31.60;44.70;;;;;;4948882;28;44934;-73
2022/07/21 13:07:46;;;;;;;4.95;4.55;;;31.60;44.70;;;;;;4949057;28;45846;-68
2022/07/21 13:10:12;;;;;;;5.80;4.75;;;31.60;44.70;;;;;;4937272;28;44861;-69
2022/07/21 13:12:38;;;;;;;4.82;4.43;;;31.60;44.60;;;;;;4954209;28;45464;-71
2022/07/21 13:15:04;;;;;;;4.75;4.35;;;31.70;44.70;;;;;;4934206;28;46164;-72
2022/07/21 13:17:30;;;;;;;5.25;4.75;;;31.70;44.60;;;;;;4938200;28;44990;-71
2022/07/21 13:19:55;;;;;;;4.65;4.25;;;31.70;44.60;;;;;;4945753;28;44894;-72
2022/07/21 13:22:21;;;;;;;4.78;4.38;;;31.70;44.60;;;;;;4953705;28;45169;-70
2022/07/21 13:24:47;;;;;;;4.78;4.38;;;31.70;44.60;;;;;;4976329;28;44975;-73
2022/07/21 13:27:12;;;;;;;5.38;4.47;;;31.70;44.60;;;;;;4953171;28;45412;-70
2022/07/21 13:29:38;;;;;;;5.10;4.60;;;31.70;44.60;;;;;;4935653;28;45033;-71
2022/07/21 13:32:04;;;;;;;4.88;4.47;;;31.70;44.60;;;;;;4953652;28;45145;-75
2022/07/21 13:34:30;;;;;;;4.78;4.38;;;31.80;44.60;;;;;;4952171;28;44961;-72
2022/07/21 13:36:56;;;;;;;4.75;4.35;;;31.80;44.60;;;;;;4966639;28;46265;-69
2022/07/21 13:39:26;;;;;;;5.05;4.65;;;31.80;44.70;;;;;;4965562;28;45056;-70
2022/07/21 13:41:52;;;;;;;4.88;4.47;;;31.90;44.70;;;;;;4946171;28;46296;-68
2022/07/21 13:44:18;;;;;;;4.72;4.32;;;31.90;44.60;;;;;;4946957;28;45092;-69
2022/07/21 13:46:43;;;;;;;5.47;4.97;;;31.90;44.70;;;;;;4949590;28;45222;-71
2022/07/21 13:49:09;;;;;;;4.90;4.50;;;31.90;44.60;;;;;;4948139;28;45252;-72
2022/07/21 13:51:35;;;;;;;5.53;4.40;;;31.90;44.60;;;;;;4944088;28;45435;-72
2022/07/21 13:54:00;;;;;;;5.30;4.80;;;31.90;44.60;;;;;;4949739;28;44905;-72
2022/07/21 13:56:26;;;;;;;4.05;3.72;;;31.90;44.60;;;;;;4969303;28;46140;-57
2022/07/21 13:58:52;;;;;;;4.22;3.63;;;32.00;44.40;;;;;;4963414;28;45106;-58
2022/07/21 14:01:17;;;;;;;3.55;2.83;;;32.10;43.10;;;;;;4972785;28;45228;-59
2022/07/21 14:03:43;;;;;;;3.78;3.08;;;32.10;42.40;;;;;;4959948;28;46157;-59
2022/07/21 14:06:09;;;;;;;4.70;2.80;;;32.10;41.60;;;;;;4961258;28;46273;-59
2022/07/21 14:08:34;;;;;;;2.78;2.35;;;32.10;40.50;;;;;;4979057;28;44826;-58
2022/07/21 14:11:00;;;;;;;2.88;2.58;;;32.20;40.00;;;;;;4975659;28;44952;-59
2022/07/21 14:13:25;;;;;;;2.72;2.47;;;32.20;39.80;;;;;;4981047;28;44999;-59
2022/07/21 14:15:51;;;;;;;5.65;2.20;;;32.20;39.10;;;;;;4978968;28;46156;-58
2022/07/21 14:18:16;;;;;;;3.40;2.45;;;32.20;39.00;;;;;;4983049;28;45192;-59
2022/07/21 14:20:42;;;;;;;3.72;2.28;;;32.20;38.20;;;;;;4985290;28;44745;-57
2022/07/21 14:23:07;;;;;;;3.85;2.38;;;32.20;37.90;;;;;;4984204;28;45166;-58
2022/07/21 14:25:33;;;;;;;3.33;2.40;;;32.20;37.50;;;;;;4978991;28;46072;-59
2022/07/21 14:27:59;;;;;;;4.07;2.40;;;32.30;37.90;;;;;;4970614;28;45154;-58
2022/07/21 14:30:25;;;;;;;2.85;2.40;;;32.30;37.20;;;;;;4963381;28;45349;-59
2022/07/21 14:32:51;;;;;;;2.70;2.45;;;32.30;36.80;;;;;;4961297;28;45437;-58
2022/07/21 14:35:18;;;;;;;3.17;2.33;;;32.30;36.90;;;;;;4963877;28;45947;-57
2022/07/21 14:37:44;;;;;;;3.30;2.70;;;32.40;36.40;;;;;;4980362;28;45021;-59
2022/07/21 14:40:10;;;;;;;4.53;2.35;;;32.40;36.30;;;;;;4980317;28;44800;-55
2022/07/21 14:42:36;;;;;;;2.67;2.17;;;32.40;36.10;;;;;;4982802;28;45460;-58
2022/07/21 14:45:02;;;;;;;2.80;2.55;;;32.40;35.90;;;;;;4978859;28;46210;-56
2022/07/21 14:47:29;;;;;;;3.30;2.33;;;32.40;36.10;;;;;;4976590;28;45315;-58
2022/07/21 14:49:55;;;;;;;3.75;2.55;;;32.40;35.70;;;;;;4978501;28;44697;-58
2022/07/21 14:52:21;;;;;;;2.85;2.33;;;32.40;35.60;;;;;;4976539;28;45489;-55
2022/07/21 14:54:47;;;;;;;4.45;2.22;;;32.40;35.60;;;;;;4982844;28;45479;-58
2022/07/21 14:57:14;;;;;;;2.88;2.22;;;32.40;35.40;;;;;;4990184;28;45274;-59
2022/07/21 14:59:40;;;;;;;4.70;2.55;;;32.40;35.20;;;;;;4981314;28;44792;-59
2022/07/21 15:02:06;;;;;;;4.30;2.40;;;32.40;35.00;;;;;;4976279;28;44973;-57
2022/07/21 15:04:32;;;;;;;2.90;2.53;;;32.50;35.20;;;;;;4962532;28;45263;-57
2022/07/21 15:06:58;;;;;;;4.13;2.50;;;32.50;34.70;;;;;;4974677;28;45034;-56
2022/07/21 15:09:25;;;;;;;3.55;2.30;;;32.50;34.70;;;;;;4976059;28;45434;-59
2022/07/21 15:11:51;;;;;;;2.90;2.30;;;32.40;34.50;;;;;;4976074;28;44713;-60
2022/07/21 15:14:17;;;;;;;3.80;2.55;;;32.50;34.40;;;;;;4981293;28;45071;-59
2022/07/21 15:16:42;;;;;;;2.50;1.92;;;32.50;34.60;;;;;;4981532;28;45090;-58
2022/07/21 15:19:09;;;;;;;2.72;2.40;;;32.50;34.50;;;;;;4945887;28;45758;-60
2022/07/21 15:21:35;;;;;;;3.78;2.50;;;32.50;34.40;;;;;;4964023;28;45398;-59
2022/07/21 15:24:01;;;;;;;3.22;2.50;;;32.50;34.00;;;;;;4978528;28;45383;-58
2022/07/21 15:26:27;;;;;;;3.65;2.80;;;32.50;34.00;;;;;;4976190;28;45025;-58
2022/07/21 15:28:53;;;;;;;3.05;2.47;;;32.50;34.10;;;;;;4981973;28;45171;-59
2022/07/21 15:31:18;;;;;;;4.53;2.80;;;32.50;34.50;;;;;;4982645;28;48028;-58
2022/07/21 15:33:44;;;;;;;4.03;2.80;;;32.50;33.60;;;;;;4982694;28;46208;-58
2022/07/21 15:36:10;;;;;;;2.67;2.47;;;32.50;33.40;;;;;;4982223;28;44986;-58
2022/07/21 15:38:36;;;;;;;3.00;2.47;;;32.50;33.20;;;;;;4981344;28;45060;-57
2022/07/21 15:41:02;;;;;;;4.10;2.17;;;32.50;33.10;;;;;;4979202;28;44984;-57
2022/07/21 15:43:28;;;;;;;4.20;2.85;;;32.50;33.10;;;;;;4957917;28;45391;-58
2022/07/21 15:45:53;;;;;;;3.65;2.40;;;32.50;32.90;;;;;;4957106;28;44908;-58
2022/07/21 15:48:19;;;;;;;3.45;2.50;;;32.50;32.70;;;;;;4983541;28;44667;-58
2022/07/21 15:50:45;;;;;;;3.95;2.60;;;32.50;32.70;;;;;;4978650;28;45112;-57